sensor_id;sensor_type;location;lat;lon;timestamp;pressure;altitude;pressure_sealevel;temperature;humidity
64632;BME280;58358;50.936;0.246;2023-02-23T00:01:38;100775.84;;;8.28;68.85
64632;BME280;58358;50.936;0.246;2023-02-23T00:04:02;100778.61;;;8.23;69.00
64632;BME280;58358;50.936;0.246;2023-02-23T00:06:29;100785.62;;;7.88;70.19
64632;BME280;58358;50.936;0.246;2023-02-23T00:08:53;100786.06;;;7.63;68.49
64632;BME280;58358;50.936;0.246;2023-02-23T00:11:18;100795.57;;;7.01;71.30
64632;BME280;58358;50.936;0.246;2023-02-23T00:13:45;100792.54;;;7.30;72.52
64632;BME280;58358;50.936;0.246;2023-02-23T00:16:11;100794.92;;;7.58;72.40
64632;BME280;58358;50.936;0.246;2023-02-23T00:18:34;100794.46;;;7.68;70.38
64632;BME280;58358;50.936;0.246;2023-02-23T00:20:59;100794.42;;;7.80;70.88
64632;BME280;58358;50.936;0.246;2023-02-23T00:23:24;100796.71;;;6.10;72.50
64632;BME280;58358;50.936;0.246;2023-02-23T00:25:49;100791.01;;;6.93;72.09
64632;BME280;58358;50.936;0.246;2023-02-23T00:28:15;100791.93;;;7.94;70.38
64632;BME280;58358;50.936;0.246;2023-02-23T00:30:40;100794.59;;;7.05;70.44
64632;BME280;58358;50.936;0.246;2023-02-23T00:33:05;100795.31;;;6.71;72.93
64632;BME280;58358;50.936;0.246;2023-02-23T00:35:32;100795.17;;;6.93;70.75
64632;BME280;58358;50.936;0.246;2023-02-23T00:37:56;100798.84;;;6.47;72.98
64632;BME280;58358;50.936;0.246;2023-02-23T00:40:21;100794.63;;;6.81;72.47
64632;BME280;58358;50.936;0.246;2023-02-23T00:42:47;100796.51;;;7.48;69.83
64632;BME280;58358;50.936;0.246;2023-02-23T00:45:13;100793.29;;;7.76;68.49
64632;BME280;58358;50.936;0.246;2023-02-23T00:47:38;100799.53;;;7.40;69.29
64632;BME280;58358;50.936;0.246;2023-02-23T00:50:03;100798.51;;;6.17;72.16
64632;BME280;58358;50.936;0.246;2023-02-23T00:52:28;100800.16;;;7.30;70.36
64632;BME280;58358;50.936;0.246;2023-02-23T00:54:53;100802.19;;;7.11;71.44
64632;BME280;58358;50.936;0.246;2023-02-23T00:57:18;100800.80;;;6.27;73.36
64632;BME280;58358;50.936;0.246;2023-02-23T00:59:44;100802.33;;;5.80;74.92
64632;BME280;58358;50.936;0.246;2023-02-23T01:02:09;100803.66;;;5.86;74.99
64632;BME280;58358;50.936;0.246;2023-02-23T01:04:34;100806.46;;;5.97;74.67
64632;BME280;58358;50.936;0.246;2023-02-23T01:07:00;100811.16;;;7.05;72.20
64632;BME280;58358;50.936;0.246;2023-02-23T01:09:25;100811.34;;;5.70;76.88
64632;BME280;58358;50.936;0.246;2023-02-23T01:11:51;100811.97;;;5.64;77.97
64632;BME280;58358;50.936;0.246;2023-02-23T01:14:17;100811.50;;;6.53;74.00
64632;BME280;58358;50.936;0.246;2023-02-23T01:16:42;100809.28;;;6.35;73.34
64632;BME280;58358;50.936;0.246;2023-02-23T01:19:09;100810.33;;;6.02;74.30
64632;BME280;58358;50.936;0.246;2023-02-23T01:21:35;100809.32;;;6.23;73.79
64632;BME280;58358;50.936;0.246;2023-02-23T01:23:59;100809.65;;;5.28;77.63
64632;BME280;58358;50.936;0.246;2023-02-23T01:26:27;100812.44;;;5.76;76.36
64632;BME280;58358;50.936;0.246;2023-02-23T01:28:51;100811.35;;;5.98;76.63
64632;BME280;58358;50.936;0.246;2023-02-23T01:31:16;100814.39;;;3.85;77.93
64632;BME280;58358;50.936;0.246;2023-02-23T01:33:41;100816.24;;;4.73;78.67
64632;BME280;58358;50.936;0.246;2023-02-23T01:36:08;100816.31;;;5.11;79.73
64632;BME280;58358;50.936;0.246;2023-02-23T01:38:33;100815.68;;;6.05;75.79
64632;BME280;58358;50.936;0.246;2023-02-23T01:40:59;100818.48;;;4.86;78.41
64632;BME280;58358;50.936;0.246;2023-02-23T01:43:24;100819.41;;;5.35;77.25
64632;BME280;58358;50.936;0.246;2023-02-23T01:45:50;100823.40;;;4.88;78.01
64632;BME280;58358;50.936;0.246;2023-02-23T01:48:18;100823.34;;;4.76;80.65
64632;BME280;58358;50.936;0.246;2023-02-23T01:50:46;100828.70;;;3.97;81.75
64632;BME280;58358;50.936;0.246;2023-02-23T01:53:07;100829.66;;;4.43;80.98
64632;BME280;58358;50.936;0.246;2023-02-23T01:55:33;100830.61;;;3.77;82.40
64632;BME280;58358;50.936;0.246;2023-02-23T01:58:05;100830.24;;;4.93;83.39
64632;BME280;58358;50.936;0.246;2023-02-23T02:00:25;100831.50;;;3.36;87.18
64632;BME280;58358;50.936;0.246;2023-02-23T02:02:49;100832.85;;;3.32;87.76
64632;BME280;58358;50.936;0.246;2023-02-23T02:05:16;100831.23;;;4.23;83.58
64632;BME280;58358;50.936;0.246;2023-02-23T02:07:44;100830.70;;;4.16;83.02
64632;BME280;58358;50.936;0.246;2023-02-23T02:10:07;100837.21;;;2.33;88.29
64632;BME280;58358;50.936;0.246;2023-02-23T02:12:32;100831.95;;;2.04;91.90
64632;BME280;58358;50.936;0.246;2023-02-23T02:14:57;100839.27;;;3.87;89.23
64632;BME280;58358;50.936;0.246;2023-02-23T02:17:29;100837.60;;;3.21;87.92
64632;BME280;58358;50.936;0.246;2023-02-23T02:22:30;100841.80;;;3.62;89.16
64632;BME280;58358;50.936;0.246;2023-02-23T02:24:54;100841.78;;;3.60;87.12
64632;BME280;58358;50.936;0.246;2023-02-23T02:27:12;100838.07;;;3.17;89.30
64632;BME280;58358;50.936;0.246;2023-02-23T02:32:11;100834.41;;;2.52;93.94
64632;BME280;58358;50.936;0.246;2023-02-23T02:34:35;100831.14;;;2.19;94.34
64632;BME280;58358;50.936;0.246;2023-02-23T02:39:16;100829.13;;;2.39;95.13
64632;BME280;58358;50.936;0.246;2023-02-23T02:41:41;100828.05;;;3.13;92.00
64632;BME280;58358;50.936;0.246;2023-02-23T02:44:10;100820.16;;;4.02;86.71
64632;BME280;58358;50.936;0.246;2023-02-23T02:46:32;100823.71;;;3.58;88.79
64632;BME280;58358;50.936;0.246;2023-02-23T02:48:59;100826.56;;;3.62;88.72
64632;BME280;58358;50.936;0.246;2023-02-23T02:51:23;100831.65;;;3.56;88.32
64632;BME280;58358;50.936;0.246;2023-02-23T02:53:50;100830.99;;;3.34;89.44
64632;BME280;58358;50.936;0.246;2023-02-23T02:56:14;100830.41;;;3.38;89.98
64632;BME280;58358;50.936;0.246;2023-02-23T02:58:37;100831.58;;;3.91;86.96
64632;BME280;58358;50.936;0.246;2023-02-23T03:01:07;100834.61;;;4.23;85.96
64632;BME280;58358;50.936;0.246;2023-02-23T03:03:31;100832.86;;;3.82;86.40
64632;BME280;58358;50.936;0.246;2023-02-23T03:05:53;100832.89;;;4.17;85.56
64632;BME280;58358;50.936;0.246;2023-02-23T03:08:21;100831.92;;;3.95;84.57
64632;BME280;58358;50.936;0.246;2023-02-23T03:10:50;100833.37;;;4.65;83.91
64632;BME280;58358;50.936;0.246;2023-02-23T03:13:17;100837.75;;;2.76;88.93
64632;BME280;58358;50.936;0.246;2023-02-23T03:15:44;100835.48;;;3.44;87.83
64632;BME280;58358;50.936;0.246;2023-02-23T03:18:08;100834.84;;;2.60;89.78
64632;BME280;58358;50.936;0.246;2023-02-23T03:20:33;100839.96;;;2.84;90.92
64632;BME280;58358;50.936;0.246;2023-02-23T03:22:57;100841.52;;;3.57;89.26
64632;BME280;58358;50.936;0.246;2023-02-23T03:25:21;100845.58;;;3.45;89.94
64632;BME280;58358;50.936;0.246;2023-02-23T03:27:47;100848.26;;;2.62;88.88
64632;BME280;58358;50.936;0.246;2023-02-23T03:30:13;100848.82;;;3.46;88.50
64632;BME280;58358;50.936;0.246;2023-02-23T03:32:36;100845.34;;;3.78;87.45
64632;BME280;58358;50.936;0.246;2023-02-23T03:35:04;100846.96;;;4.11;86.32
64632;BME280;58358;50.936;0.246;2023-02-23T03:37:28;100851.40;;;5.17;81.69
64632;BME280;58358;50.936;0.246;2023-02-23T03:39:56;100851.66;;;4.25;84.11
64632;BME280;58358;50.936;0.246;2023-02-23T03:42:19;100853.29;;;2.99;87.40
64632;BME280;58358;50.936;0.246;2023-02-23T03:44:44;100851.88;;;4.42;86.70
64632;BME280;58358;50.936;0.246;2023-02-23T03:47:08;100850.89;;;4.76;83.74
64632;BME280;58358;50.936;0.246;2023-02-23T03:49:35;100855.39;;;4.04;86.52
64632;BME280;58358;50.936;0.246;2023-02-23T03:52:02;100853.28;;;3.49;87.95
64632;BME280;58358;50.936;0.246;2023-02-23T03:54:28;100855.53;;;2.54;92.72
64632;BME280;58358;50.936;0.246;2023-02-23T03:56:51;100849.69;;;2.38;92.21
64632;BME280;58358;50.936;0.246;2023-02-23T03:59:19;100849.76;;;2.42;94.10
64632;BME280;58358;50.936;0.246;2023-02-23T04:01:41;100841.85;;;1.81;94.66
64632;BME280;58358;50.936;0.246;2023-02-23T04:04:07;100846.02;;;2.43;97.42
64632;BME280;58358;50.936;0.246;2023-02-23T04:06:37;100842.27;;;2.15;96.76
64632;BME280;58358;50.936;0.246;2023-02-23T04:09:02;100839.63;;;2.36;96.48
64632;BME280;58358;50.936;0.246;2023-02-23T04:11:27;100841.43;;;2.36;94.91
64632;BME280;58358;50.936;0.246;2023-02-23T04:13:53;100841.45;;;3.33;93.14
64632;BME280;58358;50.936;0.246;2023-02-23T04:16:14;100843.05;;;3.41;91.32
64632;BME280;58358;50.936;0.246;2023-02-23T04:18:38;100845.35;;;3.29;92.36
64632;BME280;58358;50.936;0.246;2023-02-23T04:21:05;100842.75;;;2.35;95.66
64632;BME280;58358;50.936;0.246;2023-02-23T04:23:29;100851.83;;;2.92;94.92
64632;BME280;58358;50.936;0.246;2023-02-23T04:25:55;100849.36;;;3.28;91.69
64632;BME280;58358;50.936;0.246;2023-02-23T04:28:22;100848.92;;;4.09;91.43
64632;BME280;58358;50.936;0.246;2023-02-23T04:30:46;100852.01;;;3.71;90.46
64632;BME280;58358;50.936;0.246;2023-02-23T04:33:13;100855.91;;;4.04;87.95
64632;BME280;58358;50.936;0.246;2023-02-23T04:35:38;100857.02;;;4.19;88.18
64632;BME280;58358;50.936;0.246;2023-02-23T04:38:03;100864.37;;;3.75;90.22
64632;BME280;58358;50.936;0.246;2023-02-23T04:40:31;100866.43;;;2.83;92.12
64632;BME280;58358;50.936;0.246;2023-02-23T04:42:54;100865.21;;;2.46;93.78
64632;BME280;58358;50.936;0.246;2023-02-23T04:45:21;100875.82;;;3.75;90.40
64632;BME280;58358;50.936;0.246;2023-02-23T04:47:45;100878.29;;;3.08;93.01
64632;BME280;58358;50.936;0.246;2023-02-23T04:50:11;100883.58;;;2.30;94.21
64632;BME280;58358;50.936;0.246;2023-02-23T04:52:38;100879.85;;;3.07;92.04
64632;BME280;58358;50.936;0.246;2023-02-23T04:55:02;100877.12;;;2.16;96.53
64632;BME280;58358;50.936;0.246;2023-02-23T04:57:27;100877.29;;;2.80;97.47
64632;BME280;58358;50.936;0.246;2023-02-23T04:59:52;100882.11;;;2.56;95.16
64632;BME280;58358;50.936;0.246;2023-02-23T05:02:18;100885.70;;;2.77;96.04
64632;BME280;58358;50.936;0.246;2023-02-23T05:04:43;100891.12;;;3.19;93.21
64632;BME280;58358;50.936;0.246;2023-02-23T05:07:09;100893.65;;;4.23;90.39
64632;BME280;58358;50.936;0.246;2023-02-23T05:09:34;100893.79;;;4.12;89.38
64632;BME280;58358;50.936;0.246;2023-02-23T05:12:00;100896.43;;;4.28;86.21
64632;BME280;58358;50.936;0.246;2023-02-23T05:14:25;100898.13;;;4.14;86.66
64632;BME280;58358;50.936;0.246;2023-02-23T05:16:51;100899.27;;;2.96;90.80
64632;BME280;58358;50.936;0.246;2023-02-23T05:19:17;100901.07;;;3.39;89.76
64632;BME280;58358;50.936;0.246;2023-02-23T05:21:42;100896.10;;;4.85;86.40
64632;BME280;58358;50.936;0.246;2023-02-23T05:24:08;100898.15;;;4.64;87.39
64632;BME280;58358;50.936;0.246;2023-02-23T05:26:33;100895.57;;;4.23;86.14
64632;BME280;58358;50.936;0.246;2023-02-23T05:28:59;100896.81;;;4.70;87.37
64632;BME280;58358;50.936;0.246;2023-02-23T05:31:24;100907.33;;;2.88;90.25
64632;BME280;58358;50.936;0.246;2023-02-23T05:33:50;100910.04;;;3.46;90.06
64632;BME280;58358;50.936;0.246;2023-02-23T05:36:17;100909.52;;;2.61;92.84
64632;BME280;58358;50.936;0.246;2023-02-23T05:38:42;100910.75;;;3.38;88.30
64632;BME280;58358;50.936;0.246;2023-02-23T05:41:07;100910.53;;;3.93;90.14
64632;BME280;58358;50.936;0.246;2023-02-23T05:43:32;100907.79;;;3.84;91.29
64632;BME280;58358;50.936;0.246;2023-02-23T05:45:58;100903.65;;;3.70;90.14
64632;BME280;58358;50.936;0.246;2023-02-23T05:48:23;100902.99;;;2.59;94.83
64632;BME280;58358;50.936;0.246;2023-02-23T05:50:49;100905.72;;;2.54;96.80
64632;BME280;58358;50.936;0.246;2023-02-23T05:53:15;100914.41;;;4.02;92.16
64632;BME280;58358;50.936;0.246;2023-02-23T05:55:40;100914.54;;;3.30;89.06
64632;BME280;58358;50.936;0.246;2023-02-23T05:58:06;100910.29;;;4.22;88.64
64632;BME280;58358;50.936;0.246;2023-02-23T06:00:32;100913.09;;;3.52;89.95
64632;BME280;58358;50.936;0.246;2023-02-23T06:02:57;100909.71;;;4.88;85.13
64632;BME280;58358;50.936;0.246;2023-02-23T06:05:22;100915.59;;;3.95;86.83
64632;BME280;58358;50.936;0.246;2023-02-23T06:07:48;100921.50;;;4.01;88.98
64632;BME280;58358;50.936;0.246;2023-02-23T06:10:14;100922.36;;;5.27;84.89
64632;BME280;58358;50.936;0.246;2023-02-23T06:12:40;100929.25;;;4.70;83.16
64632;BME280;58358;50.936;0.246;2023-02-23T06:15:06;100932.86;;;4.86;85.51
64632;BME280;58358;50.936;0.246;2023-02-23T06:17:30;100943.41;;;4.34;88.20
64632;BME280;58358;50.936;0.246;2023-02-23T06:19:56;100941.24;;;3.12;92.57
64632;BME280;58358;50.936;0.246;2023-02-23T06:22:21;100951.79;;;3.87;91.27
64632;BME280;58358;50.936;0.246;2023-02-23T06:24:47;100950.95;;;3.64;91.84
64632;BME280;58358;50.936;0.246;2023-02-23T06:27:13;100954.11;;;4.09;89.23
64632;BME280;58358;50.936;0.246;2023-02-23T06:29:38;100950.97;;;4.29;90.10
64632;BME280;58358;50.936;0.246;2023-02-23T06:32:04;100954.34;;;4.08;89.88
64632;BME280;58358;50.936;0.246;2023-02-23T06:34:30;100945.07;;;3.44;92.16
64632;BME280;58358;50.936;0.246;2023-02-23T06:36:55;100948.50;;;3.12;94.28
64632;BME280;58358;50.936;0.246;2023-02-23T06:39:20;100955.72;;;3.69;90.96
64632;BME280;58358;50.936;0.246;2023-02-23T06:41:46;100961.81;;;3.45;91.02
64632;BME280;58358;50.936;0.246;2023-02-23T06:44:11;100959.28;;;3.27;91.67
64632;BME280;58358;50.936;0.246;2023-02-23T06:46:36;100971.48;;;2.45;97.08
64632;BME280;58358;50.936;0.246;2023-02-23T06:49:02;100973.18;;;3.30;94.97
64632;BME280;58358;50.936;0.246;2023-02-23T06:51:28;100977.44;;;4.28;90.50
64632;BME280;58358;50.936;0.246;2023-02-23T06:53:53;100985.55;;;4.65;87.32
64632;BME280;58358;50.936;0.246;2023-02-23T06:56:19;100984.62;;;5.25;84.78
64632;BME280;58358;50.936;0.246;2023-02-23T06:58:44;100986.32;;;4.28;87.96
64632;BME280;58358;50.936;0.246;2023-02-23T07:01:10;100986.98;;;4.67;86.74
64632;BME280;58358;50.936;0.246;2023-02-23T07:03:35;100990.87;;;4.28;89.68
64632;BME280;58358;50.936;0.246;2023-02-23T07:06:00;100993.48;;;4.21;90.01
64632;BME280;58358;50.936;0.246;2023-02-23T07:08:26;100991.92;;;3.79;91.00
64632;BME280;58358;50.936;0.246;2023-02-23T07:10:51;100993.70;;;4.27;88.81
64632;BME280;58358;50.936;0.246;2023-02-23T07:13:16;100998.04;;;3.33;89.11
64632;BME280;58358;50.936;0.246;2023-02-23T07:15:42;100993.92;;;3.14;91.31
64632;BME280;58358;50.936;0.246;2023-02-23T07:18:07;101004.55;;;4.78;88.72
64632;BME280;58358;50.936;0.246;2023-02-23T07:20:33;101008.18;;;3.68;90.30
64632;BME280;58358;50.936;0.246;2023-02-23T07:22:58;101009.42;;;4.12;89.64
64632;BME280;58358;50.936;0.246;2023-02-23T07:25:24;101009.94;;;3.02;93.86
64632;BME280;58358;50.936;0.246;2023-02-23T07:27:50;101010.08;;;3.15;95.76
64632;BME280;58358;50.936;0.246;2023-02-23T07:30:15;101012.42;;;3.97;93.56
64632;BME280;58358;50.936;0.246;2023-02-23T07:32:40;101006.86;;;3.21;97.03
64632;BME280;58358;50.936;0.246;2023-02-23T07:35:06;101007.64;;;4.09;93.33
64632;BME280;58358;50.936;0.246;2023-02-23T07:37:33;101005.70;;;2.80;94.47
64632;BME280;58358;50.936;0.246;2023-02-23T07:39:57;101011.37;;;3.50;95.07
64632;BME280;58358;50.936;0.246;2023-02-23T07:42:22;101014.85;;;3.13;94.72
64632;BME280;58358;50.936;0.246;2023-02-23T07:44:48;101019.97;;;3.28;95.19
64632;BME280;58358;50.936;0.246;2023-02-23T07:47:14;101031.35;;;4.49;91.91
64632;BME280;58358;50.936;0.246;2023-02-23T07:49:39;101033.63;;;3.36;95.75
64632;BME280;58358;50.936;0.246;2023-02-23T07:52:04;101037.63;;;3.08;94.65
64632;BME280;58358;50.936;0.246;2023-02-23T07:54:30;101044.28;;;3.45;95.03
64632;BME280;58358;50.936;0.246;2023-02-23T07:56:56;101049.91;;;4.54;91.13
64632;BME280;58358;50.936;0.246;2023-02-23T07:59:22;101057.28;;;3.72;94.01
64632;BME280;58358;50.936;0.246;2023-02-23T08:01:48;101056.33;;;3.65;93.78
64632;BME280;58358;50.936;0.246;2023-02-23T08:04:14;101066.16;;;4.62;92.55
64632;BME280;58358;50.936;0.246;2023-02-23T08:06:39;101064.26;;;4.69;91.66
64632;BME280;58358;50.936;0.246;2023-02-23T08:09:05;101065.88;;;4.24;92.35
64632;BME280;58358;50.936;0.246;2023-02-23T08:11:31;101067.64;;;3.59;93.69
64632;BME280;58358;50.936;0.246;2023-02-23T08:13:56;101067.88;;;2.78;98.94
64632;BME280;58358;50.936;0.246;2023-02-23T08:16:22;101069.90;;;2.31;99.80
64632;BME280;58358;50.936;0.246;2023-02-23T08:18:48;101064.95;;;2.94;99.96
64632;BME280;58358;50.936;0.246;2023-02-23T08:21:14;101063.69;;;3.49;98.89
64632;BME280;58358;50.936;0.246;2023-02-23T08:23:39;101065.44;;;3.27;96.91
64632;BME280;58358;50.936;0.246;2023-02-23T08:26:05;101069.14;;;3.03;98.34
64632;BME280;58358;50.936;0.246;2023-02-23T08:28:31;101075.12;;;2.29;100.00
64632;BME280;58358;50.936;0.246;2023-02-23T08:30:56;101070.86;;;3.06;99.59
64632;BME280;58358;50.936;0.246;2023-02-23T08:33:22;101067.52;;;3.81;97.36
64632;BME280;58358;50.936;0.246;2023-02-23T08:35:47;101069.69;;;4.42;94.17
64632;BME280;58358;50.936;0.246;2023-02-23T08:38:12;101060.62;;;3.55;96.41
64632;BME280;58358;50.936;0.246;2023-02-23T08:40:38;101060.08;;;3.07;98.87
64632;BME280;58358;50.936;0.246;2023-02-23T08:43:03;101058.93;;;2.55;100.00
64632;BME280;58358;50.936;0.246;2023-02-23T08:45:29;101065.28;;;2.71;100.00
64632;BME280;58358;50.936;0.246;2023-02-23T08:47:54;101066.77;;;3.23;100.00
64632;BME280;58358;50.936;0.246;2023-02-23T08:50:26;101064.92;;;3.38;100.00
64632;BME280;58358;50.936;0.246;2023-02-23T08:52:46;101066.38;;;2.86;100.00
64632;BME280;58358;50.936;0.246;2023-02-23T08:55:12;101065.66;;;2.86;100.00
64632;BME280;58358;50.936;0.246;2023-02-23T08:57:37;101059.70;;;3.35;100.00
64632;BME280;58358;50.936;0.246;2023-02-23T09:00:04;101062.00;;;3.42;100.00
64632;BME280;58358;50.936;0.246;2023-02-23T09:02:28;101067.29;;;3.88;100.00
64632;BME280;58358;50.936;0.246;2023-02-23T09:04:53;101079.33;;;4.34;98.27
64632;BME280;58358;50.936;0.246;2023-02-23T09:07:20;101083.21;;;3.71;99.28
64632;BME280;58358;50.936;0.246;2023-02-23T09:09:44;101088.76;;;2.94;100.00
64632;BME280;58358;50.936;0.246;2023-02-23T09:12:10;101090.51;;;3.59;100.00
64632;BME280;58358;50.936;0.246;2023-02-23T09:14:35;101085.23;;;3.16;100.00
64632;BME280;58358;50.936;0.246;2023-02-23T09:17:01;101077.70;;;3.47;100.00
64632;BME280;58358;50.936;0.246;2023-02-23T09:19:26;101080.02;;;3.32;100.00
64632;BME280;58358;50.936;0.246;2023-02-23T09:21:52;101083.66;;;2.48;100.00
64632;BME280;58358;50.936;0.246;2023-02-23T09:24:18;101088.27;;;2.31;100.00
64632;BME280;58358;50.936;0.246;2023-02-23T09:26:43;101089.05;;;3.30;100.00
64632;BME280;58358;50.936;0.246;2023-02-23T09:29:08;101084.81;;;3.39;100.00
64632;BME280;58358;50.936;0.246;2023-02-23T09:31:33;101080.75;;;3.66;100.00
64632;BME280;58358;50.936;0.246;2023-02-23T09:33:59;101083.04;;;3.66;100.00
64632;BME280;58358;50.936;0.246;2023-02-23T09:36:25;101086.32;;;3.46;100.00
64632;BME280;58358;50.936;0.246;2023-02-23T09:38:52;101089.59;;;4.27;100.00
64632;BME280;58358;50.936;0.246;2023-02-23T09:41:30;101096.02;;;4.01;100.00
64632;BME280;58358;50.936;0.246;2023-02-23T09:43:46;101086.05;;;3.57;100.00
64632;BME280;58358;50.936;0.246;2023-02-23T09:46:13;101087.18;;;3.51;100.00
64632;BME280;58358;50.936;0.246;2023-02-23T09:48:32;101094.55;;;4.47;100.00
64632;BME280;58358;50.936;0.246;2023-02-23T09:50:59;101098.42;;;4.28;99.62
64632;BME280;58358;50.936;0.246;2023-02-23T09:53:29;101106.23;;;4.25;99.05
64632;BME280;58358;50.936;0.246;2023-02-23T09:55:49;101108.00;;;4.61;98.48
64632;BME280;58358;50.936;0.246;2023-02-23T09:58:21;101105.39;;;4.79;98.47
64632;BME280;58358;50.936;0.246;2023-02-23T10:00:42;101097.70;;;4.37;97.21
64632;BME280;58358;50.936;0.246;2023-02-23T10:03:13;101102.20;;;4.46;97.80
64632;BME280;58358;50.936;0.246;2023-02-23T10:05:37;101110.64;;;4.46;97.78
64632;BME280;58358;50.936;0.246;2023-02-23T10:08:02;101116.40;;;3.58;100.00
64632;BME280;58358;50.936;0.246;2023-02-23T10:10:25;101117.11;;;3.51;99.63
64632;BME280;58358;50.936;0.246;2023-02-23T10:12:53;101109.98;;;3.44;100.00
64632;BME280;58358;50.936;0.246;2023-02-23T10:15:25;101121.38;;;3.60;100.00
64632;BME280;58358;50.936;0.246;2023-02-23T10:17:44;101115.14;;;3.37;100.00
64632;BME280;58358;50.936;0.246;2023-02-23T10:20:13;101125.08;;;3.91;100.00
64632;BME280;58358;50.936;0.246;2023-02-23T10:22:32;101130.49;;;4.47;99.15
64632;BME280;58358;50.936;0.246;2023-02-23T10:25:01;101139.60;;;3.36;100.00
64632;BME280;58358;50.936;0.246;2023-02-23T10:27:24;101137.88;;;2.79;100.00
64632;BME280;58358;50.936;0.246;2023-02-23T10:29:48;101134.42;;;3.53;100.00
64632;BME280;58358;50.936;0.246;2023-02-23T10:32:19;101137.89;;;3.93;100.00
64632;BME280;58358;50.936;0.246;2023-02-23T10:34:39;101142.98;;;3.34;100.00
64632;BME280;58358;50.936;0.246;2023-02-23T10:37:05;101143.11;;;4.24;100.00
64632;BME280;58358;50.936;0.246;2023-02-23T10:39:31;101145.80;;;3.64;100.00
64632;BME280;58358;50.936;0.246;2023-02-23T10:41:57;101153.32;;;3.32;100.00
64632;BME280;58358;50.936;0.246;2023-02-23T10:44:24;101161.41;;;3.76;100.00
64632;BME280;58358;50.936;0.246;2023-02-23T10:46:52;101164.24;;;4.15;100.00
64632;BME280;58358;50.936;0.246;2023-02-23T10:49:18;101161.79;;;3.50;100.00
64632;BME280;58358;50.936;0.246;2023-02-23T10:51:41;101161.82;;;3.79;99.34
64632;BME280;58358;50.936;0.246;2023-02-23T10:56:31;101163.16;;;3.77;100.00
64632;BME280;58358;50.936;0.246;2023-02-23T10:58:58;101166.38;;;4.27;100.00
64632;BME280;58358;50.936;0.246;2023-02-23T11:01:31;101168.06;;;4.49;98.11
64632;BME280;58358;50.936;0.246;2023-02-23T11:03:48;101168.94;;;3.54;99.89
64632;BME280;58358;50.936;0.246;2023-02-23T11:06:28;101169.99;;;3.63;99.77
64632;BME280;58358;50.936;0.246;2023-02-23T11:08:40;101173.30;;;3.40;100.00
64632;BME280;58358;50.936;0.246;2023-02-23T11:13:37;101179.41;;;3.42;100.00
64632;BME280;58358;50.936;0.246;2023-02-23T11:15:59;101177.97;;;3.55;100.00
64632;BME280;58358;50.936;0.246;2023-02-23T11:18:23;101174.22;;;3.86;98.71
64632;BME280;58358;50.936;0.246;2023-02-23T11:20:48;101177.97;;;3.84;99.76
64632;BME280;58358;50.936;0.246;2023-02-23T11:23:20;101182.42;;;4.40;98.08
64632;BME280;58358;50.936;0.246;2023-02-23T11:25:41;101185.71;;;4.44;97.74
64632;BME280;58358;50.936;0.246;2023-02-23T11:28:05;101185.83;;;4.39;97.32
64632;BME280;58358;50.936;0.246;2023-02-23T11:30:35;101183.43;;;3.84;99.18
64632;BME280;58358;50.936;0.246;2023-02-23T11:32:58;101189.13;;;4.12;99.01
64632;BME280;58358;50.936;0.246;2023-02-23T11:35:29;101178.06;;;3.75;100.00
64632;BME280;58358;50.936;0.246;2023-02-23T11:37:47;101177.15;;;3.94;99.88
64632;BME280;58358;50.936;0.246;2023-02-23T11:40:19;101182.22;;;4.95;99.15
64632;BME280;58358;50.936;0.246;2023-02-23T11:45:09;101191.48;;;4.13;97.89
64632;BME280;58358;50.936;0.246;2023-02-23T11:47:32;101190.98;;;3.82;100.00
64632;BME280;58358;50.936;0.246;2023-02-23T11:49:56;101186.85;;;3.29;100.00
64632;BME280;58358;50.936;0.246;2023-02-23T11:52:23;101194.42;;;3.04;100.00
64632;BME280;58358;50.936;0.246;2023-02-23T11:54:51;101193.61;;;3.82;100.00
64632;BME280;58358;50.936;0.246;2023-02-23T11:57:20;101200.05;;;3.64;100.00
64632;BME280;58358;50.936;0.246;2023-02-23T11:59:40;101192.26;;;3.54;100.00
64632;BME280;58358;50.936;0.246;2023-02-23T12:04:38;101195.94;;;3.37;100.00
64632;BME280;58358;50.936;0.246;2023-02-23T12:09:25;101204.83;;;2.91;100.00
64632;BME280;58358;50.936;0.246;2023-02-23T12:11:50;101201.06;;;3.99;99.16
64632;BME280;58358;50.936;0.246;2023-02-23T12:14:22;101196.05;;;3.80;98.82
64632;BME280;58358;50.936;0.246;2023-02-23T12:16:41;101193.91;;;4.79;96.99
64632;BME280;58358;50.936;0.246;2023-02-23T12:19:16;101192.87;;;4.22;97.59
64632;BME280;58358;50.936;0.246;2023-02-23T12:21:36;101186.92;;;4.70;95.61
64632;BME280;58358;50.936;0.246;2023-02-23T12:24:09;101190.91;;;3.92;97.35
64632;BME280;58358;50.936;0.246;2023-02-23T12:26:22;101198.27;;;3.92;98.37
64632;BME280;58358;50.936;0.246;2023-02-23T12:28:53;101194.68;;;3.82;96.84
64632;BME280;58358;50.936;0.246;2023-02-23T12:31:22;101189.94;;;4.77;95.85
64632;BME280;58358;50.936;0.246;2023-02-23T12:33:43;101176.62;;;4.61;94.35
64632;BME280;58358;50.936;0.246;2023-02-23T12:36:13;101176.96;;;4.34;94.89
64632;BME280;58358;50.936;0.246;2023-02-23T12:38:38;101177.03;;;4.49;94.62
64632;BME280;58358;50.936;0.246;2023-02-23T12:41:04;101175.64;;;4.56;92.31
64632;BME280;58358;50.936;0.246;2023-02-23T12:43:29;101180.59;;;5.13;91.72
64632;BME280;58358;50.936;0.246;2023-02-23T12:45:51;101171.68;;;4.46;93.37
64632;BME280;58358;50.936;0.246;2023-02-23T12:48:26;101176.48;;;4.72;94.13
64632;BME280;58358;50.936;0.246;2023-02-23T12:50:43;101165.45;;;5.26;93.59
64632;BME280;58358;50.936;0.246;2023-02-23T12:53:16;101163.49;;;5.81;92.56
64632;BME280;58358;50.936;0.246;2023-02-23T12:55:44;101163.09;;;5.77;91.92
64632;BME280;58358;50.936;0.246;2023-02-23T12:58:02;101160.92;;;4.06;93.08
64632;BME280;58358;50.936;0.246;2023-02-23T13:00:35;101167.16;;;3.62;96.09
64632;BME280;58358;50.936;0.246;2023-02-23T13:02:57;101174.52;;;3.94;96.00
64632;BME280;58358;50.936;0.246;2023-02-23T13:05:20;101175.11;;;3.50;96.70
64632;BME280;58358;50.936;0.246;2023-02-23T13:07:47;101174.75;;;3.16;98.36